Time;durP1;ratioP1;P1;durP2;ratioP2;P2;SDS_P1;SDS_P2;PMS_P1;PMS_P2;Temp;Humidity;BMP_temperature;BMP_pressure;BME280_temperature;BME280_humidity;BME280_pressure;Samples;Min_cycle;Max_cycle;Signal;HPM_P1;HPM_P2
2022/06/09 00:00:18;;;;;;;2.53;1.30;;;;;;;14.23;100.00;99460.34;5030596;28;20181;-61
2022/06/09 00:02:47;;;;;;;1.93;1.50;;;;;;;14.19;100.00;99453.78;5049794;28;20181;-59
2022/06/09 00:05:14;;;;;;;3.53;2.00;;;;;;;14.24;100.00;99464.59;5049344;28;20184;-61
2022/06/09 00:07:41;;;;;;;2.17;1.60;;;;;;;14.19;100.00;99470.13;5048803;28;20178;-60
2022/06/09 00:10:18;;;;;;;1.73;1.47;;;;;;;14.19;100.00;99459.78;5040126;28;20231;-61
2022/06/09 00:12:43;;;;;;;5.27;1.57;;;;;;;14.31;100.00;99467.50;5048795;28;20208;-60
2022/06/09 00:15:13;;;;;;;3.10;1.90;;;;;;;14.30;100.00;99465.84;5053843;28;20570;-60
2022/06/09 00:17:39;;;;;;;2.53;1.40;;;;;;;14.25;100.00;99467.97;5053366;28;20228;-59
2022/06/09 00:20:06;;;;;;;1.80;1.50;;;;;;;14.20;100.00;99471.78;5042354;28;20236;-60
2022/06/09 00:22:31;;;;;;;2.40;1.67;;;;;;;14.32;100.00;99469.13;5052622;28;20216;-61
2022/06/09 00:24:57;;;;;;;3.77;1.40;;;;;;;14.29;100.00;99474.53;5053713;28;20209;-60
2022/06/09 00:27:23;;;;;;;1.90;1.60;;;;;;;14.25;100.00;99474.00;5052209;28;20186;-59
2022/06/09 00:29:48;;;;;;;2.57;1.57;;;;;;;14.19;100.00;99477.06;5053883;28;20694;-60
2022/06/09 00:32:14;;;;;;;3.73;1.80;;;;;;;14.09;100.00;99476.97;5042522;28;20225;-60
2022/06/09 00:34:39;;;;;;;4.37;1.57;;;;;;;14.03;100.00;99478.28;5052567;28;20189;-61
2022/06/09 00:37:04;;;;;;;3.97;1.70;;;;;;;13.97;100.00;99481.34;5053118;28;20579;-60
2022/06/09 00:39:30;;;;;;;3.90;1.83;;;;;;;13.91;100.00;99484.41;5053384;28;20192;-60
2022/06/09 00:41:56;;;;;;;5.83;1.87;;;;;;;13.86;100.00;99487.34;5042605;28;20343;-60
2022/06/09 00:44:26;;;;;;;2.20;1.73;;;;;;;13.79;100.00;99488.78;5042091;28;20627;-60
2022/06/09 00:47:17;;;;;;;2.50;1.70;;;;;;;13.77;100.00;99492.41;5031744;28;20229;-62
2022/06/09 00:49:45;;;;;;;2.33;1.80;;;;;;;13.58;100.00;99493.03;5025226;28;20189;-60
2022/06/09 00:52:14;;;;;;;2.80;1.47;;;;;;;13.56;100.00;99486.19;5038944;28;20233;-61
2022/06/09 00:54:43;;;;;;;4.17;1.80;;;;;;;13.44;100.00;99489.72;5032125;28;20181;-61
2022/06/09 00:57:14;;;;;;;3.73;1.83;;;;;;;13.30;100.00;99490.75;5033128;28;20223;-61
2022/06/09 00:59:48;;;;;;;1.97;1.87;;;;;;;13.22;100.00;99493.06;5036822;28;20174;-60
2022/06/09 01:02:18;;;;;;;6.07;2.00;;;;;;;13.19;100.00;99491.56;5026590;28;20240;-60
2022/06/09 01:04:47;;;;;;;2.00;1.67;;;;;;;13.32;100.00;99500.97;5052061;28;20545;-60
2022/06/09 01:07:18;;;;;;;5.23;1.90;;;;;;;13.23;100.00;99499.88;5051397;28;20201;-60
2022/06/09 01:09:43;;;;;;;5.27;1.70;;;;;;;13.22;100.00;99493.06;5050960;28;20177;-61
2022/06/09 01:12:29;;;;;;;3.17;1.77;;;;;;;13.05;100.00;99499.53;5032884;28;20623;-61
2022/06/09 01:15:01;;;;;;;4.10;1.90;;;;;;;13.08;100.00;99494.97;5050039;28;20722;-61
2022/06/09 01:18:02;;;;;;;3.20;1.90;;;;;;;12.90;100.00;99498.91;5051132;28;20282;-61
2022/06/09 01:21:06;;;;;;;6.00;2.30;;;;;;;12.80;100.00;99492.75;5017905;28;20225;-61
2022/06/09 01:23:43;;;;;;;3.17;1.77;;;;;;;12.80;100.00;99503.09;5042794;28;20288;-62
2022/06/09 01:26:27;;;;;;;3.40;2.10;;;;;;;12.81;100.00;99505.53;5051511;28;20208;-62
2022/06/09 01:29:13;;;;;;;2.67;2.03;;;;;;;12.61;100.00;99513.94;5051639;28;20215;-61
2022/06/09 01:31:45;;;;;;;3.37;2.00;;;;;;;12.68;100.00;99521.09;5030766;28;20718;-61
2022/06/09 01:34:15;;;;;;;3.47;1.70;;;;;;;12.58;100.00;99512.41;5052761;28;20169;-60
2022/06/09 01:36:53;;;;;;;1.97;1.87;;;;;;;12.56;100.00;99511.69;5050889;28;20174;-61
2022/06/09 01:39:28;;;;;;;2.90;2.00;;;;;;;12.62;100.00;99511.22;5052582;28;20303;-61
2022/06/09 01:41:53;;;;;;;4.10;2.13;;;;;;;12.55;100.00;99513.44;5028955;28;20334;-61
2022/06/09 01:44:20;;;;;;;3.30;1.87;;;;;;;12.63;100.00;99518.03;5041311;28;20264;-61
2022/06/09 01:46:46;;;;;;;6.20;2.33;;;;;;;12.64;100.00;99518.84;5032000;28;20490;-61
2022/06/09 01:49:20;;;;;;;5.63;2.50;;;;;;;12.55;100.00;99518.59;5031365;28;20285;-61
2022/06/09 01:51:47;;;;;;;8.57;2.40;;;;;;;12.58;100.00;99520.13;5024012;28;20723;-61
2022/06/09 01:54:21;;;;;;;4.67;2.40;;;;;;;12.38;100.00;99519.00;5030955;28;20610;-60
2022/06/09 01:57:19;;;;;;;3.57;2.10;;;;;;;12.29;100.00;99515.28;5030179;28;20190;-62
2022/06/09 01:59:52;;;;;;;5.03;2.30;;;;;;;12.30;100.00;99518.72;4976469;28;20195;-60
2022/06/09 02:02:21;;;;;;;5.27;2.20;;;;;;;12.37;100.00;99514.78;4964555;28;20239;-60
2022/06/09 02:04:56;;;;;;;4.03;2.23;;;;;;;12.24;100.00;99510.47;4974208;28;20311;-60
2022/06/09 02:07:23;;;;;;;3.77;2.20;;;;;;;12.30;100.00;99513.56;4973259;28;20549;-62
2022/06/09 02:09:48;;;;;;;6.57;2.50;;;;;;;12.33;100.00;99521.06;4989292;28;20686;-60
2022/06/09 02:12:18;;;;;;;6.57;2.40;;;;;;;12.18;100.00;99510.06;4964028;28;20802;-60
2022/06/09 02:14:49;;;;;;;6.50;2.53;;;;;;;12.16;100.00;99509.38;4974077;28;20634;-60
2022/06/09 02:17:15;;;;;;;4.23;2.37;;;;;;;12.03;100.00;99517.13;4989671;28;20614;-59
2022/06/09 02:19:40;;;;;;;6.07;2.27;;;;;;;12.07;100.00;99510.84;4973840;28;20187;-61
2022/06/09 02:22:09;;;;;;;4.87;2.07;;;;;;;12.07;100.00;99521.16;4980337;28;20233;-62
2022/06/09 02:24:34;;;;;;;3.93;1.93;;;;;;;12.09;100.00;99521.88;4972410;28;20203;-61
2022/06/09 02:27:00;;;;;;;6.93;2.37;;;;;;;12.01;100.00;99519.81;4970260;28;20622;-61
2022/06/09 02:29:26;;;;;;;4.90;2.27;;;;;;;11.98;100.00;99525.19;4970862;28;20191;-68
2022/06/09 02:31:52;;;;;;;7.63;2.53;;;;;;;11.97;100.00;99526.13;4944692;28;20246;-61
2022/06/09 02:34:17;;;;;;;3.87;2.17;;;;;;;11.94;100.00;99529.72;4970924;28;20195;-61
2022/06/09 02:36:43;;;;;;;3.87;2.27;;;;;;;11.94;100.00;99531.47;5016714;28;20213;-61
2022/06/09 02:39:08;;;;;;;5.43;2.87;;;;;;;11.99;100.00;99532.00;5030308;28;20186;-59
2022/06/09 02:41:34;;;;;;;4.83;2.37;;;;;;;11.89;100.00;99529.19;5033123;28;20228;-60
2022/06/09 02:43:59;;;;;;;5.13;3.10;;;;;;;11.90;100.00;99537.75;5013750;28;20295;-60
2022/06/09 02:46:25;;;;;;;6.37;2.40;;;;;;;11.86;100.00;99534.56;5035842;28;20207;-59
2022/06/09 02:48:50;;;;;;;5.43;2.53;;;;;;;11.77;100.00;99538.59;5051646;28;20172;-59
2022/06/09 02:51:31;;;;;;;4.47;2.60;;;;;;;11.74;100.00;99535.41;5050762;28;20385;-60
2022/06/09 02:53:59;;;;;;;2.80;2.30;;;;;;;11.67;100.00;99540.19;5055674;28;20186;-61
2022/06/09 02:56:25;;;;;;;5.93;2.63;;;;;;;11.68;100.00;99541.78;5049479;28;20263;-59
2022/06/09 02:58:51;;;;;;;4.10;2.83;;;;;;;11.69;100.00;99543.44;5049849;28;20189;-62
2022/06/09 03:01:18;;;;;;;7.97;2.23;;;;;;;11.75;100.00;99549.94;5014217;28;20233;-61
2022/06/09 03:03:43;;;;;;;5.47;2.73;;;;;;;11.68;100.00;99543.56;5029752;28;20614;-61
2022/06/09 03:06:08;;;;;;;7.70;3.43;;;;;;;11.75;100.00;99537.88;5044415;28;20312;-60
2022/06/09 03:08:34;;;;;;;6.17;2.77;;;;;;;11.76;100.00;99533.56;5050795;28;20243;-63
2022/06/09 03:11:00;;;;;;;5.57;3.40;;;;;;;11.79;100.00;99543.66;5049754;28;20227;-63
2022/06/09 03:13:25;;;;;;;4.70;2.70;;;;;;;11.93;100.00;99543.53;5055478;28;20177;-63
2022/06/09 03:15:51;;;;;;;7.97;3.40;;;;;;;11.88;100.00;99547.34;5039912;28;20557;-62
2022/06/09 03:18:18;;;;;;;7.23;3.27;;;;;;;11.96;100.00;99558.00;5049948;28;20225;-63
2022/06/09 03:20:44;;;;;;;5.87;2.77;;;;;;;12.10;100.00;99565.56;5037076;28;20232;-62
2022/06/09 03:23:09;;;;;;;10.93;3.20;;;;;;;11.97;100.00;99557.06;5050297;28;20256;-64
2022/06/09 03:25:36;;;;;;;5.20;2.77;;;;;;;12.09;100.00;99563.09;5050738;28;20675;-62
2022/06/09 03:28:01;;;;;;;6.07;2.50;;;;;;;12.02;100.00;99564.47;5050520;28;20720;-63
2022/06/09 03:30:27;;;;;;;8.53;3.07;;;;;;;12.03;100.00;99556.66;5015238;28;20250;-62
2022/06/09 03:32:52;;;;;;;3.80;2.33;;;;;;;12.17;100.00;99567.72;5023113;28;20283;-62
2022/06/09 03:35:18;;;;;;;4.10;2.50;;;;;;;12.08;100.00;99562.28;5049725;28;20351;-63
2022/06/09 03:37:43;;;;;;;5.57;2.40;;;;;;;12.10;100.00;99565.56;5050815;28;20638;-63
2022/06/09 03:40:13;;;;;;;8.13;2.83;;;;;;;12.24;100.00;99567.22;5040711;28;20636;-64
2022/06/09 03:42:38;;;;;;;5.20;2.47;;;;;;;12.16;100.00;99566.91;5049677;28;20257;-63
2022/06/09 03:45:04;;;;;;;7.30;2.57;;;;;;;12.15;100.00;99567.84;5032112;28;20786;-64
2022/06/09 03:47:29;;;;;;;5.57;2.47;;;;;;;12.24;100.00;99569.78;5030251;28;20256;-63
2022/06/09 03:49:55;;;;;;;6.67;2.57;;;;;;;12.16;100.00;99569.50;5034157;28;20649;-62
2022/06/09 03:52:20;;;;;;;7.10;2.53;;;;;;;12.36;100.00;99572.44;5040108;28;20233;-63
2022/06/09 03:54:45;;;;;;;7.17;2.53;;;;;;;12.39;100.00;99574.78;5034694;28;20178;-63
2022/06/09 03:57:11;;;;;;;5.87;2.50;;;;;;;12.51;100.00;99578.25;5032695;28;20191;-64
2022/06/09 03:59:36;;;;;;;6.67;2.77;;;;;;;12.53;100.00;99579.81;5038936;28;20281;-63
2022/06/09 04:02:01;;;;;;;4.40;2.30;;;;;;;12.52;100.00;99578.16;5043338;28;20536;-63
2022/06/09 04:04:27;;;;;;;5.87;2.47;;;;;;;12.46;100.00;99586.31;5054029;28;20187;-62
2022/06/09 04:06:52;;;;;;;6.10;2.73;;;;;;;12.38;100.00;99592.03;5053836;28;20602;-63
2022/06/09 04:09:18;;;;;;;5.67;2.47;;;;;;;12.49;100.00;99593.00;5054352;28;20165;-64
2022/06/09 04:11:43;;;;;;;3.97;2.00;;;;;;;12.51;100.00;99602.28;5031871;28;20233;-63
2022/06/09 04:14:09;;;;;;;4.80;2.47;;;;;;;12.33;100.00;99612.16;5050146;28;20181;-63
2022/06/09 04:16:40;;;;;;;5.63;2.20;;;;;;;12.18;100.00;99605.47;5053912;28;20181;-62
2022/06/09 04:19:08;;;;;;;7.10;1.93;;;;;;;12.36;100.00;99604.19;5054253;28;20221;-62
2022/06/09 04:21:35;;;;;;;9.27;2.27;;;;;;;12.23;100.00;99609.41;5042570;28;20298;-63
2022/06/09 04:24:01;;;;;;;4.67;2.00;;;;;;;12.36;100.00;99619.66;5053634;28;20247;-63
2022/06/09 04:26:28;;;;;;;5.93;2.03;;;;;;;12.56;100.00;99620.03;5036599;28;20205;-64
2022/06/09 04:28:53;;;;;;;4.50;1.97;;;;;;;12.61;100.00;99619.72;5034006;28;20198;-63
2022/06/09 04:31:19;;;;;;;5.30;2.30;;;;;;;12.73;100.00;99624.00;5025745;28;20271;-62
2022/06/09 04:33:45;;;;;;;4.30;1.90;;;;;;;12.84;100.00;99618.09;5039217;28;20170;-62
2022/06/09 04:36:12;;;;;;;7.67;2.30;;;;;;;12.86;100.00;99619.63;5031945;28;20197;-62
2022/06/09 04:38:38;;;;;;;6.10;2.53;;;;;;;13.00;100.00;99617.78;5034010;28;20641;-63
2022/06/09 04:41:09;;;;;;;4.90;1.93;;;;;;;13.05;100.00;99623.47;5031319;28;20228;-62
2022/06/09 04:43:35;;;;;;;5.47;1.83;;;;;;;12.99;100.00;99622.13;5045584;28;20589;-63
2022/06/09 04:46:01;;;;;;;5.50;2.23;;;;;;;13.09;100.00;99630.03;5051351;28;20186;-63
2022/06/09 04:48:26;;;;;;;5.43;2.07;;;;;;;13.28;100.00;99641.59;5032237;28;20190;-63
2022/06/09 04:50:51;;;;;;;3.53;1.57;;;;;;;13.36;100.00;99640.09;5030172;28;20225;-63
2022/06/09 04:53:16;;;;;;;5.03;2.10;;;;;;;13.53;100.00;99641.47;5042433;28;20235;-62
2022/06/09 04:55:43;;;;;;;4.40;1.90;;;;;;;13.77;100.00;99639.75;5031826;28;20183;-62
2022/06/09 04:58:09;;;;;;;5.73;1.87;;;;;;;13.58;100.00;99651.47;5033106;28;20170;-62
2022/06/09 05:00:34;;;;;;;3.03;1.60;;;;;;;13.54;100.00;99650.88;5031419;28;20221;-61
2022/06/09 05:03:00;;;;;;;7.53;1.90;;;;;;;13.68;100.00;99655.03;5043479;28;20588;-62
2022/06/09 05:05:32;;;;;;;6.40;1.60;;;;;;;13.87;100.00;99653.63;5051879;28;20209;-62
2022/06/09 05:07:58;;;;;;;3.93;1.40;;;;;;;13.99;100.00;99650.13;5052561;28;20542;-63
2022/06/09 05:10:23;;;;;;;5.63;2.53;;;;;;;14.17;100.00;99653.06;5040966;28;20235;-62
2022/06/09 05:12:49;;;;;;;6.03;2.23;;;;;;;14.28;100.00;99654.00;5038093;28;20204;-63
2022/06/09 05:15:19;;;;;;;4.83;1.53;;;;;;;14.38;100.00;99657.53;5051967;28;20260;-60
2022/06/09 05:17:44;;;;;;;7.73;1.70;;;;;;;14.31;100.00;99656.34;5051716;28;20228;-62
2022/06/09 05:20:13;;;;;;;5.10;1.77;;;;;;;14.52;100.00;99662.47;5055726;28;20639;-62
2022/06/09 05:22:38;;;;;;;3.27;1.57;;;;;;;14.45;100.00;99660.44;5067000;28;20252;-63
2022/06/09 05:25:04;;;;;;;3.40;1.30;;;;;;;14.50;100.00;99661.75;5062584;28;20292;-63
2022/06/09 05:27:29;;;;;;;4.43;2.00;;;;;;;14.72;100.00;99672.22;5050910;28;20221;-63
2022/06/09 05:29:55;;;;;;;4.43;1.40;;;;;;;14.92;100.00;99676.63;5051439;28;20700;-62
2022/06/09 05:32:21;;;;;;;6.10;1.80;;;;;;;15.15;100.00;99682.56;5041142;28;20226;-63
2022/06/09 05:34:47;;;;;;;4.50;1.80;;;;;;;15.27;100.00;99683.34;5052645;28;20188;-62
2022/06/09 05:37:12;;;;;;;5.60;1.90;;;;;;;15.20;100.00;99689.97;5051799;28;20185;-63
2022/06/09 05:45:07;;;;;;;6.93;1.60;;;;;;;16.00;100.00;99697.34;5051961;28;20243;-63
2022/06/09 05:47:32;;;;;;;5.30;1.57;;;;;;;16.41;100.00;99691.25;5051511;28;20249;-63
2022/06/09 05:49:57;;;;;;;8.90;1.90;;;;;;;16.32;99.36;99694.63;5052207;28;20161;-63
2022/06/09 05:52:26;;;;;;;5.37;2.10;;;;;;;16.27;98.81;99708.00;5054656;28;20620;-61
2022/06/09 05:54:52;;;;;;;4.47;1.60;;;;;;;16.50;97.16;99710.41;5032527;28;20225;-63
2022/06/09 05:57:19;;;;;;;8.07;2.17;;;;;;;16.67;97.40;99711.56;5031937;28;20178;-62
2022/06/09 05:59:45;;;;;;;6.80;1.70;;;;;;;17.01;93.57;99716.44;5048686;28;20185;-62
2022/06/09 06:02:11;;;;;;;9.43;1.97;;;;;;;17.29;89.90;99714.00;5040733;28;20744;-62
2022/06/09 06:04:37;;;;;;;5.93;2.13;;;;;;;17.52;87.90;99711.94;5052272;28;20235;-63
2022/06/09 06:07:02;;;;;;;6.33;1.80;;;;;;;17.79;84.04;99720.78;5051649;28;20205;-62
2022/06/09 06:09:28;;;;;;;5.13;1.60;;;;;;;18.55;81.23;99722.47;5050390;28;20639;-63
2022/06/09 06:11:53;;;;;;;5.37;1.60;;;;;;;18.88;80.21;99732.47;5055546;28;20698;-63
2022/06/09 06:14:19;;;;;;;5.90;1.67;;;;;;;20.12;70.90;99734.34;5053282;28;20177;-63
2022/06/09 06:16:46;;;;;;;5.20;1.97;;;;;;;21.41;67.24;99735.06;5051274;28;20261;-64
2022/06/09 06:19:14;;;;;;;6.10;1.50;;;;;;;21.65;62.50;99733.44;5050425;28;20286;-63
2022/06/09 06:21:41;;;;;;;5.27;2.10;;;;;;;21.24;63.89;99733.44;5040626;28;20382;-63
2022/06/09 06:24:08;;;;;;;5.27;1.20;;;;;;;20.39;68.23;99744.75;5047466;28;20197;-62
2022/06/09 06:26:34;;;;;;;2.90;1.30;;;;;;;19.34;71.27;99738.47;5051234;28;20196;-63
2022/06/09 06:29:01;;;;;;;7.90;2.07;;;;;;;19.01;73.98;99751.22;5051580;28;20203;-63
2022/06/09 06:31:26;;;;;;;8.40;2.67;;;;;;;18.87;76.35;99747.25;5031248;28;20938;-63
2022/06/09 06:33:52;;;;;;;2.87;1.30;;;;;;;18.69;76.48;99754.22;5051791;28;20261;-62
2022/06/09 06:36:17;;;;;;;4.77;1.60;;;;;;;18.95;74.56;99757.00;5051223;28;20231;-62
2022/06/09 06:38:43;;;;;;;6.30;1.83;;;;;;;18.93;75.81;99752.88;5050194;28;20213;-62
2022/06/09 06:41:10;;;;;;;2.93;1.13;;;;;;;19.34;73.21;99755.91;5033947;28;20233;-61
2022/06/09 06:43:36;;;;;;;5.80;1.43;;;;;;;20.56;66.96;99772.56;5037357;28;20231;-63
2022/06/09 06:46:02;;;;;;;4.13;1.50;;;;;;;21.79;59.11;99767.81;5030882;28;20649;-62
2022/06/09 06:48:32;;;;;;;8.87;1.37;;;;;;;21.90;59.54;99765.66;5031731;28;20539;-61
2022/06/09 06:50:58;;;;;;;5.90;1.47;;;;;;;21.41;61.10;99784.78;5028429;28;20237;-63
2022/06/09 06:53:23;;;;;;;4.77;1.73;;;;;;;20.48;64.54;99783.00;5039767;28;20275;-62
2022/06/09 06:55:48;;;;;;;7.23;1.77;;;;;;;20.13;66.82;99782.13;5033396;28;20177;-62
2022/06/09 06:58:13;;;;;;;4.70;1.40;;;;;;;19.52;69.59;99782.81;5055391;28;20174;-62
2022/06/09 07:00:40;;;;;;;3.53;1.80;;;;;;;18.87;73.28;99788.16;5023317;28;20657;-62
2022/06/09 07:03:07;;;;;;;3.03;1.30;;;;;;;18.93;74.38;99784.16;5039314;28;20173;-62
2022/06/09 07:05:33;;;;;;;4.30;1.30;;;;;;;18.74;75.96;99790.28;5050290;28;20207;-62
2022/06/09 07:07:58;;;;;;;4.33;1.90;;;;;;;18.94;76.06;99791.84;5049889;28;20185;-63
2022/06/09 07:10:24;;;;;;;3.40;1.40;;;;;;;19.30;72.66;99796.28;5038484;28;20244;-61
2022/06/09 07:12:49;;;;;;;6.23;1.70;;;;;;;19.56;72.47;99792.94;5021254;28;20209;-62
2022/06/09 07:15:15;;;;;;;4.13;1.30;;;;;;;19.27;73.42;99802.63;5044186;28;20185;-62
2022/06/09 07:17:42;;;;;;;7.53;1.63;;;;;;;18.82;77.11;99808.63;5043297;28;20225;-61
2022/06/09 07:20:10;;;;;;;7.50;2.50;;;;;;;18.48;79.44;99799.56;5060170;28;20185;-63
2022/06/09 07:22:36;;;;;;;4.67;1.77;;;;;;;18.03;80.28;99810.63;5068234;28;20188;-63
2022/06/09 07:25:02;;;;;;;8.73;2.20;;;;;;;17.90;81.56;99809.09;5053884;28;20201;-63
2022/06/09 07:27:27;;;;;;;5.37;1.90;;;;;;;17.80;81.56;99813.50;5052959;28;20299;-64
2022/06/09 07:29:53;;;;;;;5.13;1.90;;;;;;;17.89;83.03;99817.06;5054832;28;20511;-62
2022/06/09 07:32:18;;;;;;;6.50;1.80;;;;;;;18.10;81.72;99822.13;5023475;28;20232;-63
2022/06/09 07:34:44;;;;;;;8.13;2.07;;;;;;;17.97;81.17;99832.00;5055386;28;20226;-62
2022/06/09 07:37:11;;;;;;;3.03;1.60;;;;;;;17.78;82.57;99831.00;5052833;28;20184;-62
2022/06/09 07:39:36;;;;;;;6.63;1.70;;;;;;;17.77;83.00;99836.34;5036721;28;20629;-63
2022/06/09 07:42:02;;;;;;;6.27;1.63;;;;;;;17.65;81.16;99846.06;5031810;28;20229;-64
2022/06/09 07:44:28;;;;;;;8.73;1.97;;;;;;;17.73;80.87;99830.59;5059727;28;20192;-64
2022/06/09 07:46:53;;;;;;;3.37;1.70;;;;;;;17.80;81.01;99833.47;5053449;28;20205;-64
2022/06/09 07:49:19;;;;;;;9.53;2.20;;;;;;;18.05;80.45;99832.94;5054463;28;20186;-62
2022/06/09 07:51:44;;;;;;;5.73;2.10;;;;;;;18.57;80.01;99842.16;5042610;28;20300;-63
2022/06/09 07:54:10;;;;;;;5.23;1.90;;;;;;;18.57;77.44;99843.94;5049859;28;20663;-64
2022/06/09 07:56:36;;;;;;;7.07;2.17;;;;;;;18.13;79.08;99847.06;5071733;28;20173;-62
2022/06/09 07:59:06;;;;;;;4.23;1.90;;;;;;;17.96;83.21;99843.34;5073358;28;20260;-63
2022/06/09 08:01:32;;;;;;;7.60;1.87;;;;;;;18.06;84.24;99855.41;5023158;28;20288;-62
2022/06/09 08:03:58;;;;;;;7.83;2.57;;;;;;;18.11;87.13;99848.97;5034174;28;20181;-63
2022/06/09 08:06:23;;;;;;;6.97;2.07;;;;;;;17.87;86.32;99852.78;5035187;28;20194;-63
2022/06/09 08:08:50;;;;;;;5.03;1.90;;;;;;;17.81;84.26;99861.13;5052534;28;20227;-63
2022/06/09 08:11:15;;;;;;;5.67;1.87;;;;;;;17.95;83.86;99865.97;5035743;28;20565;-63
2022/06/09 08:13:40;;;;;;;6.43;1.90;;;;;;;17.79;82.17;99871.69;5047535;28;20265;-63
2022/06/09 08:16:07;;;;;;;7.20;1.80;;;;;;;17.64;83.37;99868.66;5054028;28;20978;-62
2022/06/09 08:18:32;;;;;;;4.90;1.70;;;;;;;17.51;82.29;99870.69;5034280;28;20308;-63
2022/06/09 08:20:57;;;;;;;3.13;1.63;;;;;;;17.47;82.68;99869.31;5025902;28;20368;-63
2022/06/09 08:23:25;;;;;;;6.43;2.00;;;;;;;17.75;81.90;99878.13;5032827;28;20624;-63
2022/06/09 08:25:54;;;;;;;3.57;1.60;;;;;;;18.02;80.08;99874.03;5043061;28;20201;-64
2022/06/09 08:28:20;;;;;;;5.37;2.03;;;;;;;18.04;78.52;99879.94;5051574;28;20189;-63
2022/06/09 08:30:48;;;;;;;3.97;1.67;;;;;;;18.35;77.69;99871.97;5033919;28;20236;-63
2022/06/09 08:33:13;;;;;;;6.57;2.37;;;;;;;18.44;76.19;99881.53;5031840;28;20182;-63
2022/06/09 08:35:39;;;;;;;4.17;1.67;;;;;;;18.26;76.89;99872.78;5051465;28;20197;-62
2022/06/09 08:38:05;;;;;;;4.43;1.70;;;;;;;18.62;76.02;99879.03;5051983;28;20181;-63
2022/06/09 08:40:49;;;;;;;5.03;1.80;;;;;;;18.44;76.86;99881.53;5041931;28;20229;-63
2022/06/09 08:43:34;;;;;;;2.93;1.30;;;;;;;18.44;75.21;99894.53;5041067;28;20235;-63
2022/06/09 08:46:15;;;;;;;3.83;1.40;;;;;;;18.53;71.93;99895.47;5061362;28;20208;-63
2022/06/09 08:48:43;;;;;;;4.63;1.37;;;;;;;18.90;71.11;99899.91;5040794;28;20176;-63
2022/06/09 08:51:17;;;;;;;2.87;1.30;;;;;;;18.79;70.57;99906.13;5039410;28;20307;-62
2022/06/09 08:53:54;;;;;;;3.77;1.37;;;;;;;19.06;71.16;99908.94;5039770;28;20643;-62
2022/06/09 08:56:26;;;;;;;5.37;2.07;;;;;;;18.99;70.37;99916.50;5051599;28;20193;-63
2022/06/09 08:59:12;;;;;;;3.63;1.40;;;;;;;18.46;72.08;99917.88;5050537;28;20264;-65
2022/06/09 09:01:48;;;;;;;4.97;1.10;;;;;;;18.51;71.08;99919.06;5032607;28;20243;-65
2022/06/09 09:04:27;;;;;;;2.97;1.30;;;;;;;18.51;72.42;99920.88;5053470;28;20188;-64
2022/06/09 09:07:07;;;;;;;4.43;1.47;;;;;;;18.63;73.43;99924.97;5060901;28;20200;-64
2022/06/09 09:09:35;;;;;;;5.17;1.63;;;;;;;18.59;76.76;99926.19;5050280;28;20182;-63
2022/06/09 09:12:28;;;;;;;6.03;1.33;;;;;;;18.53;75.49;99931.94;5020915;28;20296;-63
2022/06/09 09:15:33;;;;;;;3.50;1.27;;;;;;;18.82;73.17;99933.69;5049398;28;20192;-63
2022/06/09 09:18:15;;;;;;;4.63;1.33;;;;;;;19.08;74.80;99938.31;5012814;28;1080204;-63
2022/06/09 09:20:59;;;;;;;5.83;1.60;;;;;;;18.79;78.13;99934.81;5042328;28;20614;-63
2022/06/09 09:23:55;;;;;;;3.40;1.47;;;;;;;19.02;81.27;99935.28;5052421;28;20200;-64
2022/06/09 09:26:32;;;;;;;3.83;1.40;;;;;;;19.23;77.77;99939.47;5031196;28;20303;-63
2022/06/09 09:29:20;;;;;;;2.73;1.30;;;;;;;19.26;78.33;99930.53;5033362;28;20189;-63
2022/06/09 09:31:51;;;;;;;4.40;1.40;;;;;;;19.02;80.88;99935.28;5029725;28;20229;-62
2022/06/09 09:34:22;;;;;;;4.57;1.80;;;;;;;18.93;83.99;99940.53;5052642;28;20307;-63
2022/06/09 09:36:52;;;;;;;4.67;1.90;;;;;;;18.76;86.85;99950.69;5050719;28;20181;-62
2022/06/09 09:39:20;;;;;;;6.33;1.63;;;;;;;18.73;89.16;99955.38;5052132;28;20216;-62
2022/06/09 09:41:46;;;;;;;7.80;1.57;;;;;;;18.82;85.48;99957.94;5035013;28;20221;-62
2022/06/09 09:44:24;;;;;;;5.73;2.00;;;;;;;18.79;85.77;99958.25;5055043;28;20181;-64
2022/06/09 09:46:58;;;;;;;4.10;1.60;;;;;;;18.08;87.79;99968.97;5043240;28;20582;-63
2022/06/09 09:49:31;;;;;;;4.90;1.43;;;;;;;17.73;93.68;99969.28;5053241;28;20609;-63
2022/06/09 09:51:59;;;;;;;6.47;1.97;;;;;;;17.57;96.74;99968.97;5013763;28;20249;-64
2022/06/09 09:54:29;;;;;;;5.80;2.33;;;;;;;17.68;100.00;99971.47;5068123;28;20189;-63
2022/06/09 09:57:16;;;;;;;5.60;1.77;;;;;;;17.27;99.58;99971.47;5071710;28;20584;-62
2022/06/09 09:59:45;;;;;;;4.27;1.67;;;;;;;17.42;100.00;99978.91;5070486;28;20209;-62
2022/06/09 10:11:53;;;;;;;4.37;2.27;;;;;;;17.97;100.00;99988.13;5021282;28;20229;-63
2022/06/09 10:13:48;;;;;;;7.70;2.63;;;;;;;17.94;98.18;99986.63;5039116;28;20189;-62
2022/06/09 10:16:14;;;;;;;5.63;1.97;;;;;;;18.42;97.61;99992.84;5049934;28;20189;-63
2022/06/09 10:18:44;;;;;;;2.87;1.90;;;;;;;18.55;96.09;99990.75;5051513;28;20559;-62
2022/06/09 10:21:13;;;;;;;3.90;2.17;;;;;;;19.03;95.20;99996.88;5041438;28;20697;-56
2022/06/09 10:24:01;;;;;;;5.70;2.00;;;;;;;19.64;90.21;99992.13;5030533;28;20174;-57
2022/06/09 10:26:36;;;;;;;4.53;1.80;;;;;;;19.84;84.94;99990.25;5046736;28;20625;-57
2022/06/09 10:29:16;;;;;;;5.17;1.80;;;;;;;19.75;83.61;99987.69;5041956;28;20187;-57
2022/06/09 10:31:55;;;;;;;4.87;1.93;;;;;;;19.83;86.80;99991.25;5060056;28;20285;-58
2022/06/09 10:34:45;;;;;;;6.47;2.17;;;;;;;19.65;78.66;99992.97;5069124;28;20617;-58
2022/06/09 10:37:13;;;;;;;4.17;1.90;;;;;;;20.22;73.52;99990.16;5070821;28;20535;-56
2022/06/09 10:40:03;;;;;;;5.50;2.63;;;;;;;20.27;70.94;99992.31;5071201;28;20543;-57
2022/06/09 10:42:49;;;;;;;4.70;1.80;;;;;;;20.13;75.44;99993.63;5060151;28;20197;-57
2022/06/09 10:45:32;;;;;;;5.47;2.10;;;;;;;20.14;72.63;99992.69;5051011;28;20184;-58
2022/06/09 10:57:28;;;;;;;4.93;1.77;;;;;;;20.41;66.28;100004.84;4993888;28;20206;-57
2022/06/09 11:00:11;;;;;;;4.10;1.63;;;;;;;20.50;70.12;100008.34;5029166;28;20577;-57
2022/06/09 11:02:37;;;;;;;6.13;2.70;;;;;;;20.83;67.65;100003.41;5012770;28;20268;-57
2022/06/09 11:05:04;;;;;;;3.67;1.70;;;;;;;21.04;64.79;100004.84;5051318;28;20193;-56
2022/06/09 11:07:50;;;;;;;2.73;1.27;;;;;;;21.00;62.89;100003.50;5050409;28;20252;-56
2022/06/09 11:10:44;;;;;;;4.93;1.67;;;;;;;21.32;60.12;100007.28;5040883;28;20177;-55
2022/06/09 11:13:24;;;;;;;4.00;1.27;;;;;;;21.35;60.38;100005.19;5050307;28;20196;-57
2022/06/09 11:15:56;;;;;;;5.00;1.40;;;;;;;21.53;61.41;100005.09;5040108;28;20241;-57
2022/06/09 11:18:36;;;;;;;3.33;1.30;;;;;;;21.66;57.87;100009.09;5049705;28;20257;-57
2022/06/09 11:21:19;;;;;;;3.60;1.60;;;;;;;21.96;55.39;100012.13;5034352;28;20213;-56
2022/06/09 11:23:57;;;;;;;4.27;1.50;;;;;;;21.92;54.88;100003.78;5060420;28;20245;-56
2022/06/09 11:26:28;;;;;;;6.37;1.93;;;;;;;21.90;57.04;100013.59;5054110;28;20484;-56
2022/06/09 11:29:36;;;;;;;4.67;1.60;;;;;;;21.54;56.67;100017.19;5050730;28;20624;-56
2022/06/09 11:32:03;;;;;;;2.40;1.33;;;;;;;21.95;56.63;100016.53;5002965;28;20660;-56
2022/06/09 11:34:42;;;;;;;3.60;1.33;;;;;;;21.57;56.41;100011.69;5050747;28;20261;-57
2022/06/09 11:37:26;;;;;;;3.93;1.50;;;;;;;21.70;57.47;100013.84;5050278;28;20178;-57
2022/06/09 11:40:04;;;;;;;4.57;1.57;;;;;;;21.48;57.13;100014.38;5050865;28;20185;-56
2022/06/09 11:42:54;;;;;;;4.57;1.50;;;;;;;21.47;55.89;100015.38;5039593;28;20224;-56
2022/06/09 11:45:31;;;;;;;4.33;1.60;;;;;;;21.26;59.53;100014.78;5051456;28;20193;-58
2022/06/09 11:48:01;;;;;;;3.53;1.33;;;;;;;21.02;60.38;100010.22;5050283;28;20188;-57
2022/06/09 11:50:33;;;;;;;3.43;1.40;;;;;;;20.54;60.35;100021.94;5037225;28;20225;-57
2022/06/09 11:53:00;;;;;;;4.97;1.60;;;;;;;20.51;59.07;100019.63;5022018;28;20182;-57
2022/06/09 11:58:33;;;;;;;4.83;1.43;;;;;;;20.86;59.36;100024.00;5049735;28;20274;-57
2022/06/09 12:01:32;;;;;;;7.60;2.10;;;;;;;20.98;58.29;100023.78;5047811;28;20300;-56
2022/06/09 12:04:20;;;;;;;3.93;1.60;;;;;;;20.88;56.89;100031.72;5054829;28;20184;-57
2022/06/09 12:07:20;;;;;;;4.87;1.80;;;;;;;21.28;57.37;100027.69;5050057;28;20197;-58
2022/06/09 12:10:31;;;;;;;3.53;1.73;;;;;;;21.08;56.41;100025.28;5051497;28;20635;-57